Time;durP1;ratioP1;P1;durP2;ratioP2;P2;SDS_P1;SDS_P2;PMS_P1;PMS_P2;Temp;Humidity;BMP_temperature;BMP_pressure;BME280_temperature;BME280_humidity;BME280_pressure;Samples;Min_cycle;Max_cycle;Signal;HPM_P1;HPM_P2
2022/12/07 00:01:13;;;;;;;;;59.50;46.25;;;;;2.75;80.06;101924.22;5034821;28;45460;-80
2022/12/07 00:03:40;;;;;;;;;60.75;42.00;;;;;2.72;80.54;101922.47;5034839;28;45920;-80
2022/12/07 00:06:06;;;;;;;;;52.50;39.25;;;;;2.69;80.18;101912.09;5034957;28;45382;-80
2022/12/07 00:08:33;;;;;;;;;40.25;33.00;;;;;2.70;80.36;101919.84;5036079;28;45354;-80
2022/12/07 00:11:12;;;;;;;;;57.25;41.25;;;;;2.71;80.15;101915.56;5035913;28;45456;-81
2022/12/07 00:13:39;;;;;;;;;67.25;48.25;;;;;2.67;79.98;101914.63;5034433;28;45886;-80
2022/12/07 00:16:09;;;;;;;;;57.25;43.75;;;;;2.66;80.29;101909.47;5035991;28;45368;-80
2022/12/07 00:18:35;;;;;;;;;55.50;43.00;;;;;2.66;80.42;101901.75;5034665;28;45325;-80
2022/12/07 00:21:07;;;;;;;;;51.50;42.25;;;;;2.67;80.38;101908.63;5035653;28;46655;-80
2022/12/07 00:23:33;;;;;;;;;46.50;30.25;;;;;2.66;80.91;101907.75;5035895;28;45919;-80
2022/12/07 00:26:10;;;;;;;;;65.25;46.25;;;;;2.66;80.72;101896.63;5035876;28;45536;-80
2022/12/07 00:28:36;;;;;;;;;56.25;38.25;;;;;2.65;80.75;101903.44;5035523;28;45370;-80
2022/12/07 00:31:10;;;;;;;;;53.50;45.00;;;;;2.68;80.48;101898.38;5035581;28;46230;-80
2022/12/07 00:33:36;;;;;;;;;50.75;39.50;;;;;2.66;80.46;101900.06;5035510;28;45804;-80
2022/12/07 00:36:03;;;;;;;;;48.75;40.50;;;;;2.63;80.57;101897.41;5035590;28;45396;-80
2022/12/07 00:38:30;;;;;;;;;60.75;42.75;;;;;2.63;81.24;101901.69;5035653;28;45410;-80
2022/12/07 00:41:06;;;;;;;;;42.00;34.00;;;;;2.60;80.94;101899.91;5035517;28;45396;-80
2022/12/07 00:53:38;;;;;;;;;44.25;31.25;;;;;2.64;81.14;101914.56;5035477;28;45405;-80
2022/12/07 00:56:15;;;;;;;;;44.00;32.50;;;;;2.67;81.21;101913.75;5017640;28;45530;-80
2022/12/07 00:58:40;;;;;;;;;43.00;31.50;;;;;2.65;80.51;101912.88;5039019;28;45298;-80
2022/12/07 01:01:07;;;;;;;;;47.00;30.25;;;;;2.65;80.88;101902.59;5021273;28;45481;-80
2022/12/07 01:03:32;;;;;;;;;53.75;36.50;;;;;2.62;80.46;101897.34;5038839;28;46256;-80
2022/12/07 01:05:58;;;;;;;;;43.00;31.50;;;;;2.53;79.91;101892.91;5021048;28;45421;-80
2022/12/07 01:08:25;;;;;;;;;39.00;30.00;;;;;2.46;80.20;101896.16;5021027;28;45406;-80
2022/12/07 01:10:59;;;;;;;;;36.25;29.25;;;;;2.41;80.30;101892.59;5037245;28;45491;-80
2022/12/07 01:13:25;;;;;;;;;42.25;32.50;;;;;2.36;80.68;101887.38;5021025;28;46888;-80
2022/12/07 01:15:50;;;;;;;;;30.25;27.50;;;;;2.27;81.00;101884.59;5020029;28;65216;-80
2022/12/07 01:18:15;;;;;;;;;31.00;28.50;;;;;2.22;81.41;101891.31;5038241;28;56848;-80
2022/12/07 01:20:41;;;;;;;;;38.00;33.50;;;;;2.18;81.49;101892.09;5038574;28;45457;-80
2022/12/07 01:23:06;;;;;;;;;55.50;34.50;;;;;2.12;81.57;101887.66;5038511;28;45916;-81
2022/12/07 01:25:32;;;;;;;;;43.50;29.50;;;;;2.09;81.59;101888.44;5038430;28;45290;-81
2022/12/07 01:41:27;;;;;;;;;30.00;23.00;;;;;2.12;82.58;101873.13;5038370;28;45492;-80
2022/12/07 01:44:22;;;;;;;;;28.50;21.25;;;;;2.15;82.47;101879.16;5038398;28;45386;-80
2022/12/07 01:46:50;;;;;;;;;35.25;24.75;;;;;2.16;82.58;101878.34;5038229;28;47250;-80
2022/12/07 01:49:26;;;;;;;;;41.75;27.50;;;;;2.12;82.74;101877.38;5038135;28;45376;-80
2022/12/07 01:51:57;;;;;;;;;30.50;23.25;;;;;2.12;82.66;101874.81;5020260;28;45288;-80
2022/12/07 01:54:23;;;;;;;;;33.50;24.50;;;;;2.13;82.86;101872.25;5038187;28;45417;-80
2022/12/07 01:56:53;;;;;;;;;37.00;25.25;;;;;2.11;82.78;101862.78;5038143;28;46517;-80
2022/12/07 01:59:21;;;;;;;;;29.00;21.50;;;;;2.09;82.78;101865.31;5020077;28;45416;-80
2022/12/07 02:01:47;;;;;;;;;36.25;24.25;;;;;2.11;82.84;101862.78;5020438;28;45408;-80
2022/12/07 02:04:12;;;;;;;;;26.00;22.00;;;;;2.10;82.94;101861.94;5038064;28;45476;-80
2022/12/07 02:06:38;;;;;;;;;27.00;21.25;;;;;2.15;82.94;101871.44;5036721;28;65563;-80
2022/12/07 02:09:04;;;;;;;;;29.25;20.50;;;;;2.20;82.67;101865.59;5037823;28;45492;-80
2022/12/07 02:11:30;;;;;;;;;31.50;18.25;;;;;2.24;82.51;101867.38;5038154;28;45524;-81
2022/12/07 02:13:55;;;;;;;;;33.00;21.50;;;;;2.25;82.63;101871.72;5036744;28;45512;-81
2022/12/07 02:16:32;;;;;;;;;25.00;20.50;;;;;2.23;82.43;101872.47;5019986;28;45386;-80
2022/12/07 02:19:34;;;;;;;;;26.25;20.50;;;;;2.23;82.35;101869.91;5037594;28;45435;-80
2022/12/07 02:22:23;;;;;;;;;20.75;14.00;;;;;2.21;82.14;101871.59;5037626;28;45415;-81
2022/12/07 02:25:07;;;;;;;;;26.00;21.00;;;;;2.19;82.21;101874.13;5037812;28;45322;-81
2022/12/07 02:27:43;;;;;;;;;32.75;19.50;;;;;2.17;82.03;101869.78;5037503;28;46492;-81
2022/12/07 02:30:14;;;;;;;;;25.50;19.50;;;;;2.17;82.38;101869.78;5019791;28;45278;-80
2022/12/07 02:32:56;;;;;;;;;16.00;12.00;;;;;2.16;82.22;101863.78;5019693;28;45529;-80
2022/12/07 02:35:28;;;;;;;;;26.75;19.00;;;;;2.16;82.29;101868.91;5037172;28;45497;-80
2022/12/07 02:38:09;;;;;;;;;24.50;19.50;;;;;2.19;82.25;101862.97;5019612;28;46512;-80
2022/12/07 02:40:41;;;;;;;;;29.00;19.50;;;;;2.20;82.23;101863.00;5037267;28;45362;-80
2022/12/07 02:43:16;;;;;;;;;21.75;16.00;;;;;2.21;82.16;101867.34;5019670;28;45283;-80
2022/12/07 02:45:43;;;;;;;;;22.00;19.50;;;;;2.17;82.49;101862.94;5019624;28;45422;-80
2022/12/07 02:48:12;;;;;;;;;26.75;20.50;;;;;2.17;82.51;101862.06;5018556;28;72242;-81
2022/12/07 02:50:37;;;;;;;;;30.25;18.75;;;;;2.23;82.45;101862.19;5035871;28;45413;-80
2022/12/07 02:53:03;;;;;;;;;31.50;19.00;;;;;2.25;82.22;101865.72;5036644;28;61751;-80
2022/12/07 02:55:34;;;;;;;;;27.00;21.25;;;;;2.22;82.30;101858.78;5019064;28;54008;-80
2022/12/07 02:58:17;;;;;;;;;32.75;23.25;;;;;2.19;82.84;101855.25;5019302;28;45547;-80
2022/12/07 03:01:03;;;;;;;;;29.75;19.25;;;;;2.17;82.47;101860.38;5019428;28;45839;-80
2022/12/07 03:03:28;;;;;;;;;29.50;21.25;;;;;2.14;82.67;101852.59;5036446;28;45458;-81
2022/12/07 03:06:13;;;;;;;;;22.50;18.00;;;;;2.16;82.91;101857.78;5019278;28;45519;-80
2022/12/07 03:09:04;;;;;;;;;30.25;18.50;;;;;2.17;82.80;101859.50;5018981;28;45800;-80
2022/12/07 03:11:48;;;;;;;;;20.00;16.50;;;;;2.19;82.81;101853.59;5036644;28;45413;-80
2022/12/07 03:14:22;;;;;;;;;18.50;15.50;;;;;2.27;82.93;101858.91;5019381;28;45282;-80
2022/12/07 03:17:09;;;;;;;;;25.00;10.00;;;;;2.30;82.80;101864.09;5019147;28;45689;-80
2022/12/07 03:19:36;;;;;;;;;22.25;18.00;;;;;2.27;88.70;101861.47;5017523;28;45539;-81
2022/12/07 03:22:08;;;;;;;;;23.00;16.25;;;;;2.25;82.93;101847.72;5036237;28;64663;-80
2022/12/07 03:24:39;;;;;;;;;22.50;15.75;;;;;2.30;82.84;101857.28;5019051;28;45389;-80
2022/12/07 03:27:09;;;;;;;;;24.75;16.00;;;;;2.33;83.06;101847.03;5035636;28;45449;-80
2022/12/07 03:29:37;;;;;;;;;20.00;13.25;;;;;2.36;82.94;101841.13;5018669;28;45458;-81
2022/12/07 03:32:14;;;;;;;;;26.00;18.25;;;;;2.32;84.00;101839.28;5018554;28;45469;-80
2022/12/07 03:34:46;;;;;;;;;24.50;13.25;;;;;2.22;83.79;101833.09;5018819;28;45474;-80
2022/12/07 03:37:25;;;;;;;;;21.50;15.25;;;;;2.16;83.60;101834.66;5018808;28;45393;-80
2022/12/07 03:39:59;;;;;;;;;22.50;18.75;;;;;2.13;84.16;101828.59;5036293;28;46341;-80
2022/12/07 03:42:25;;;;;;;;;20.50;15.00;;;;;2.13;83.88;101828.59;5036368;28;45298;-80
2022/12/07 03:44:50;;;;;;;;;25.75;16.50;;;;;2.18;83.94;101823.59;5036068;28;58629;-80
2022/12/07 03:47:27;;;;;;;;;23.75;14.75;;;;;2.20;84.12;101827.06;5035255;28;63269;-80
2022/12/07 03:50:03;;;;;;;;;22.00;15.75;;;;;2.25;83.57;101829.75;5018509;28;46286;-81
2022/12/07 03:52:44;;;;;;;;;24.25;14.50;;;;;2.25;84.24;101822.91;5018502;28;45393;-81
2022/12/07 03:55:40;;;;;;;;;14.25;13.50;;;;;2.28;83.45;101827.22;5018581;28;45314;-80
2022/12/07 03:58:09;;;;;;;;;20.00;16.00;;;;;2.34;83.28;101827.38;5001960;28;45598;-79
2022/12/07 04:00:37;;;;;;;;;22.25;16.75;;;;;2.39;82.97;101825.75;5018472;28;46509;-80
2022/12/07 04:03:02;;;;;;;;;12.25;10.50;;;;;2.43;83.25;101821.56;5035599;28;51770;-80
2022/12/07 04:05:27;;;;;;;;;20.00;15.50;;;;;2.44;83.73;101825.88;5036102;28;45381;-80
2022/12/07 04:07:53;;;;;;;;;19.50;14.50;;;;;2.43;83.20;101834.41;5017570;28;60153;-80
2022/12/07 04:10:18;;;;;;;;;24.00;14.00;;;;;2.43;82.92;101830.13;5018215;28;49532;-80
2022/12/07 04:12:44;;;;;;;;;18.75;12.00;;;;;2.48;83.02;101837.94;5036035;28;45353;-80
2022/12/07 04:15:09;;;;;;;;;32.75;16.00;;;;;2.43;83.35;101829.25;5035395;28;58839;-80
2022/12/07 04:17:35;;;;;;;;;15.00;14.00;;;;;2.42;83.90;101824.97;5017971;28;45440;-80
2022/12/07 04:20:00;;;;;;;;;21.50;17.75;;;;;2.39;84.13;101830.03;5035200;28;60119;-80
2022/12/07 04:22:25;;;;;;;;;21.75;17.00;;;;;2.33;83.88;101830.75;5035939;28;45310;-81
2022/12/07 04:24:51;;;;;;;;;21.75;13.50;;;;;2.36;83.95;101837.66;5035592;28;50875;-80
2022/12/07 04:27:16;;;;;;;;;24.75;20.00;;;;;2.43;84.51;101827.56;5035188;28;60588;-80
2022/12/07 04:29:42;;;;;;;;;12.50;9.00;;;;;2.45;83.86;101827.59;5035561;28;53835;-80
2022/12/07 04:32:07;;;;;;;;;23.50;16.00;;;;;2.50;83.84;101826.00;5034527;28;62953;-80
2022/12/07 04:34:32;;;;;;;;;24.25;18.00;;;;;2.51;83.99;101826.03;5017941;28;45355;-80
2022/12/07 04:36:58;;;;;;;;;24.00;18.00;;;;;2.50;84.84;101818.28;5035860;28;45365;-80
2022/12/07 04:39:31;;;;;;;;;19.50;14.00;;;;;2.46;84.06;101819.06;5034852;28;66370;-80
2022/12/07 04:41:57;;;;;;;;;23.50;14.00;;;;;2.44;84.26;101823.31;5035603;28;45896;-80
2022/12/07 04:44:24;;;;;;;;;28.00;14.50;;;;;2.42;84.11;101824.97;5035730;28;45340;-81
2022/12/07 04:46:50;;;;;;;;;17.50;16.00;;;;;2.39;84.45;101825.75;5035497;28;45414;-81
2022/12/07 04:49:15;;;;;;;;;13.75;13.00;;;;;2.33;83.64;101825.63;5017711;28;45374;-81
2022/12/07 04:51:41;;;;;;;;;17.00;14.50;;;;;2.24;83.42;101804.88;5035698;28;45298;-80
2022/12/07 04:54:07;;;;;;;;;19.25;15.50;;;;;2.19;83.61;101814.16;5035565;28;45365;-81
2022/12/07 04:56:34;;;;;;;;;16.25;10.50;;;;;2.13;83.65;101810.63;5017466;28;46365;-80
2022/12/07 04:58:59;;;;;;;;;20.00;16.00;;;;;2.10;84.33;101809.72;5035400;28;47111;-81
2022/12/07 05:01:25;;;;;;;;;15.75;12.25;;;;;2.11;84.80;101812.28;5035096;28;45358;-80
2022/12/07 05:03:51;;;;;;;;;8.50;5.50;;;;;2.04;84.19;101807.84;5035515;28;45452;-81
2022/12/07 05:06:16;;;;;;;;;23.75;18.75;;;;;2.03;84.31;101808.69;5035386;28;45346;-81
2022/12/07 05:08:42;;;;;;;;;12.50;10.50;;;;;2.06;85.02;101805.31;5035051;28;45759;-80
2022/12/07 05:11:09;;;;;;;;;14.75;12.00;;;;;2.09;85.23;101807.97;5017572;28;45800;-80
2022/12/07 05:13:35;;;;;;;;;19.00;13.50;;;;;2.09;85.42;101815.66;5035479;28;45353;-81
2022/12/07 05:16:00;;;;;;;;;21.50;18.00;;;;;2.12;84.90;101820.88;5034970;28;45492;-80
2022/12/07 05:18:26;;;;;;;;;15.75;13.00;;;;;2.17;84.85;101810.69;5035145;28;46153;-80
2022/12/07 05:20:51;;;;;;;;;23.75;16.00;;;;;2.24;85.05;101818.56;5034993;28;45477;-80
2022/12/07 05:23:17;;;;;;;;;26.00;20.00;;;;;2.31;84.87;101812.75;5017562;28;45378;-80
2022/12/07 05:25:43;;;;;;;;;21.50;15.50;;;;;2.38;84.43;101821.47;5017500;28;45428;-80
2022/12/07 05:28:09;;;;;;;;;28.50;16.00;;;;;2.42;84.34;101820.69;5033332;28;47146;-80
2022/12/07 05:30:34;;;;;;;;;23.00;18.00;;;;;2.39;84.69;101817.19;5035100;28;45472;-80
2022/12/07 05:32:59;;;;;;;;;24.25;18.00;;;;;2.35;84.63;101821.38;5034364;28;54368;-81
2022/12/07 05:35:25;;;;;;;;;23.50;16.00;;;;;2.32;84.45;101817.06;5035014;28;45558;-81
2022/12/07 05:37:50;;;;;;;;;21.75;15.00;;;;;2.33;84.80;101820.50;5034248;28;64453;-80
2022/12/07 05:40:16;;;;;;;;;23.25;16.50;;;;;2.39;84.69;101820.63;5034561;28;53034;-80
2022/12/07 05:42:42;;;;;;;;;22.25;15.25;;;;;2.45;84.61;101825.03;5036307;28;45416;-81
2022/12/07 05:45:09;;;;;;;;;19.00;14.00;;;;;2.44;84.21;101818.16;5037856;28;59009;-81
2022/12/07 05:47:34;;;;;;;;;15.50;13.50;;;;;2.37;83.84;101819.72;5038258;28;46595;-81
2022/12/07 05:49:59;;;;;;;;;21.25;15.75;;;;;2.30;84.01;101825.56;5038333;28;45376;-81
2022/12/07 05:52:25;;;;;;;;;18.50;17.00;;;;;2.26;84.08;101810.91;5037720;28;56855;-79
2022/12/07 05:54:51;;;;;;;;;21.75;17.00;;;;;2.27;84.29;101810.09;5038262;28;45463;-80
2022/12/07 05:57:16;;;;;;;;;15.75;14.50;;;;;2.26;84.02;101819.47;5037620;28;47164;-80
2022/12/07 05:59:42;;;;;;;;;17.00;15.25;;;;;2.32;84.35;101823.88;5019241;28;68849;-81
2022/12/07 06:02:13;;;;;;;;;23.50;17.00;;;;;2.35;84.29;101813.69;5037400;28;60549;-81
2022/12/07 06:04:41;;;;;;;;;17.25;14.00;;;;;2.36;84.58;101818.00;5038186;28;45384;-81
2022/12/07 06:07:07;;;;;;;;;19.25;13.25;;;;;2.39;84.35;101819.75;5037960;28;46424;-80
2022/12/07 06:09:33;;;;;;;;;23.25;11.50;;;;;2.41;84.35;101815.50;5020071;28;45395;-81
2022/12/07 06:14:43;;;;;;;;;17.25;14.50;;;;;2.38;83.97;101808.63;5038034;28;45420;-80
2022/12/07 06:17:09;;;;;;;;;18.75;14.00;;;;;2.36;83.94;101804.25;5036464;28;46930;-81
2022/12/07 06:19:35;;;;;;;;;23.00;15.75;;;;;2.35;84.18;101808.53;5037563;28;45300;-80
2022/12/07 06:22:00;;;;;;;;;14.00;13.25;;;;;2.35;84.47;101812.81;5037834;28;45392;-81
2022/12/07 06:24:26;;;;;;;;;24.00;18.25;;;;;2.37;84.50;101817.16;5037803;28;45436;-81
2022/12/07 06:26:51;;;;;;;;;23.75;16.25;;;;;2.43;84.44;101816.41;5037124;28;46193;-81
2022/12/07 06:29:17;;;;;;;;;23.00;15.00;;;;;2.43;84.71;101814.69;5037178;28;55969;-80
2022/12/07 06:31:43;;;;;;;;;30.00;19.50;;;;;2.45;84.03;101815.63;5037783;28;45368;-81
2022/12/07 06:34:20;;;;;;;;;21.25;15.25;;;;;2.45;84.25;101817.31;5037101;28;54132;-81
2022/12/07 06:36:50;;;;;;;;;22.75;18.00;;;;;2.45;84.22;101814.75;5037544;28;46257;-81
2022/12/07 06:39:16;;;;;;;;;28.00;15.25;;;;;2.44;84.35;101815.59;5037391;28;45852;-80
2022/12/07 06:41:41;;;;;;;;;24.50;16.00;;;;;2.43;84.06;101827.56;5018752;28;57375;-80
2022/12/07 06:44:07;;;;;;;;;22.25;17.50;;;;;2.48;84.38;101822.53;5037738;28;45428;-81
2022/12/07 06:46:32;;;;;;;;;24.25;14.75;;;;;2.51;84.40;101820.03;5037162;28;46031;-80
2022/12/07 06:48:58;;;;;;;;;13.25;12.25;;;;;2.52;84.15;101830.31;5036590;28;66014;-81
2022/12/07 06:51:23;;;;;;;;;24.75;16.50;;;;;2.56;84.49;101826.13;5037043;28;52028;-80
2022/12/07 06:53:48;;;;;;;;;19.00;15.50;;;;;2.58;83.96;101829.63;5036267;28;45405;-80
2022/12/07 06:56:14;;;;;;;;;24.25;16.75;;;;;2.57;84.02;101820.16;5036253;28;63138;-80
2022/12/07 06:58:40;;;;;;;;;22.75;18.00;;;;;2.59;83.88;101817.63;5036703;28;53069;-80
2022/12/07 07:01:13;;;;;;;;;18.50;15.50;;;;;2.56;84.00;101822.69;5037288;28;45372;-80
2022/12/07 07:03:38;;;;;;;;;20.75;16.00;;;;;2.54;83.88;101814.94;5037262;28;45314;-81
2022/12/07 07:06:05;;;;;;;;;21.75;16.00;;;;;2.51;83.99;101818.31;5037042;28;46120;-81
2022/12/07 07:08:30;;;;;;;;;29.25;16.25;;;;;2.50;83.65;101810.56;5036997;28;45313;-81
2022/12/07 07:10:56;;;;;;;;;27.50;16.00;;;;;2.50;84.27;101813.16;5036747;28;45373;-80
2022/12/07 07:13:21;;;;;;;;;17.00;16.00;;;;;2.52;83.99;101814.03;5036493;28;55246;-81
2022/12/07 07:15:46;;;;;;;;;18.50;14.50;;;;;2.56;84.45;101822.69;5036223;28;60511;-82
2022/12/07 07:18:12;;;;;;;;;21.50;16.50;;;;;2.59;83.96;101823.63;5019059;28;45345;-82
2022/12/07 07:20:37;;;;;;;;;19.75;15.25;;;;;2.62;84.24;101827.94;5036547;28;45397;-83
2022/12/07 07:23:03;;;;;;;;;30.50;19.00;;;;;2.63;84.18;101820.28;5036964;28;45290;-84
2022/12/07 07:25:28;;;;;;;;;31.75;16.25;;;;;2.70;84.33;101829.00;5036291;28;46425;-84
2022/12/07 07:27:53;;;;;;;;;28.25;17.00;;;;;2.71;83.95;101828.16;5036590;28;45483;-83
2022/12/07 07:30:19;;;;;;;;;23.50;15.00;;;;;2.73;84.16;101826.50;5036332;28;55205;-84
2022/12/07 07:32:44;;;;;;;;;14.75;14.00;;;;;2.71;83.86;101823.00;5018630;28;45476;-84
2022/12/07 07:35:10;;;;;;;;;23.00;19.50;;;;;2.71;83.81;101820.44;5037495;28;45442;-84
2022/12/07 07:37:35;;;;;;;;;20.25;18.25;;;;;2.71;84.01;101825.56;5007571;28;45937;-83
2022/12/07 07:40:01;;;;;;;;;25.25;20.00;;;;;2.74;84.02;101817.94;5015626;28;45425;-83
2022/12/07 07:42:26;;;;;;;;;26.00;17.50;;;;;2.77;83.93;101823.16;5013395;28;49083;-83
2022/12/07 07:44:51;;;;;;;;;30.25;18.50;;;;;2.80;84.07;101830.06;5020011;28;46943;-83
2022/12/07 07:47:17;;;;;;;;;27.50;21.25;;;;;2.85;83.85;101826.72;5038246;28;45618;-83
2022/12/07 07:49:42;;;;;;;;;21.50;17.25;;;;;2.87;83.74;101817.34;5028164;28;45410;-83
2022/12/07 07:52:08;;;;;;;;;27.00;15.50;;;;;2.97;83.88;101825.25;5018221;28;45382;-83
2022/12/07 07:54:33;;;;;;;;;15.75;13.00;;;;;3.01;83.85;101820.19;5034764;28;63649;-83
2022/12/07 07:56:59;;;;;;;;;18.75;15.50;;;;;3.06;83.74;101823.72;5018041;28;45297;-83
2022/12/07 07:59:27;;;;;;;;;20.50;16.00;;;;;3.05;83.29;101828.84;5017557;28;52739;-83
2022/12/07 08:01:53;;;;;;;;;20.00;15.50;;;;;3.08;83.61;101829.78;5036006;28;45565;-83
2022/12/07 08:04:18;;;;;;;;;15.25;8.50;;;;;3.14;83.81;101843.56;5018239;28;46490;-83
2022/12/07 08:06:43;;;;;;;;;37.00;25.00;;;;;3.18;83.10;101842.81;5035619;28;45419;-83
2022/12/07 08:09:09;;;;;;;;;30.00;20.00;;;;;3.15;83.25;101833.31;5034731;28;54997;-83
2022/12/07 08:11:37;;;;;;;;;26.75;15.75;;;;;3.12;83.21;101838.44;5028932;28;45572;-83
2022/12/07 08:14:02;;;;;;;;;20.25;20.00;;;;;3.09;83.15;101839.22;5030982;28;47672;-82
2022/12/07 08:16:28;;;;;;;;;20.50;18.75;;;;;3.12;83.54;101841.00;5035470;28;45591;-83
2022/12/07 08:18:53;;;;;;;;;32.50;19.00;;;;;3.19;83.29;101839.41;5030692;28;45402;-84
2022/12/07 08:21:19;;;;;;;;;21.25;18.00;;;;;3.22;83.16;101840.31;5020238;28;45317;-83
2022/12/07 08:23:44;;;;;;;;;18.50;15.25;;;;;3.30;83.31;101845.59;5032394;28;46708;-84
2022/12/07 08:26:12;;;;;;;;;21.75;16.00;;;;;3.28;82.94;101837.00;5013545;28;53989;-83
2022/12/07 08:28:38;;;;;;;;;32.50;19.00;;;;;3.29;83.49;101849.91;5013399;28;45547;-84
2022/12/07 08:31:10;;;;;;;;;33.25;21.25;;;;;3.32;83.41;101849.06;5003989;28;57753;-84
2022/12/07 08:33:35;;;;;;;;;36.50;21.75;;;;;3.35;83.18;101850.84;5033524;28;45572;-82
2022/12/07 08:36:05;;;;;;;;;21.50;19.25;;;;;3.37;83.20;101855.19;5033742;28;45372;-83
2022/12/07 08:38:30;;;;;;;;;30.00;22.25;;;;;3.38;82.89;101848.31;5016096;28;45541;-84
2022/12/07 08:40:57;;;;;;;;;30.75;24.00;;;;;3.38;82.80;101848.31;5002778;28;45442;-85
2022/12/07 08:43:23;;;;;;;;;38.75;20.00;;;;;3.41;83.23;101856.13;5035315;28;45489;-84
2022/12/07 08:45:56;;;;;;;;;24.50;16.00;;;;;3.43;83.31;101857.00;5017210;28;45444;-85
2022/12/07 08:48:24;;;;;;;;;32.75;25.00;;;;;3.51;83.35;101854.56;5029609;28;45476;-83
2022/12/07 08:50:55;;;;;;;;;34.25;23.50;;;;;3.55;83.58;101864.97;4992870;28;45477;-84
2022/12/07 08:53:20;;;;;;;;;29.50;21.50;;;;;3.59;83.26;101855.59;5003510;28;46501;-85
2022/12/07 08:56:11;;;;;;;;;38.50;22.50;;;;;3.63;83.30;101858.22;5010371;28;45645;-82
2022/12/07 08:58:37;;;;;;;;;28.75;21.75;;;;;3.66;82.79;101853.13;5012893;28;45536;-84
2022/12/07 09:01:03;;;;;;;;;30.75;23.50;;;;;3.72;83.10;101846.38;5027273;28;45667;-85
2022/12/07 09:03:29;;;;;;;;;33.75;29.50;;;;;3.75;83.19;101842.16;5012958;28;46344;-84
2022/12/07 09:05:54;;;;;;;;;38.75;27.00;;;;;3.82;83.17;101841.38;5008039;28;45465;-85
2022/12/07 09:08:21;;;;;;;;;39.00;26.00;;;;;3.87;82.99;101836.31;5009302;28;45522;-83
2022/12/07 09:10:47;;;;;;;;;29.50;23.75;;;;;3.95;82.66;101839.88;5007935;28;46002;-84
2022/12/07 09:13:13;;;;;;;;;36.75;23.00;;;;;4.04;82.66;101849.47;5006451;28;46673;-85
2022/12/07 09:15:38;;;;;;;;;29.00;24.75;;;;;4.04;82.21;101845.16;5004428;28;46567;-83
2022/12/07 09:18:04;;;;;;;;;31.25;21.25;;;;;4.05;82.46;101841.75;5015159;28;45418;-84
2022/12/07 09:20:29;;;;;;;;;29.25;24.75;;;;;4.05;82.25;101841.75;5009562;28;45545;-86
2022/12/07 09:22:54;;;;;;;;;36.50;25.00;;;;;4.11;82.33;101847.88;5018133;28;46337;-85
2022/12/07 09:25:20;;;;;;;;;25.50;17.00;;;;;4.15;82.18;101847.06;5037730;28;45545;-87
2022/12/07 09:27:45;;;;;;;;;34.50;27.00;;;;;4.15;82.19;101850.50;5036486;28;45519;-86
2022/12/07 09:30:11;;;;;;;;;24.50;20.00;;;;;4.19;82.23;101846.25;5037327;28;45688;-85
2022/12/07 09:32:36;;;;;;;;;35.00;27.50;;;;;4.25;82.18;101848.91;5037274;28;45662;-85
2022/12/07 09:35:02;;;;;;;;;34.50;25.50;;;;;4.34;82.43;101848.19;5019469;28;45299;-83
2022/12/07 09:37:27;;;;;;;;;31.50;25.50;;;;;4.41;82.12;101845.72;5036068;28;45425;-85
2022/12/07 09:39:53;;;;;;;;;25.00;23.00;;;;;4.49;81.96;101845.81;5019410;28;45306;-85
2022/12/07 09:42:32;;;;;;;;;32.25;24.00;;;;;4.59;81.54;101845.13;5030797;28;46197;-83
2022/12/07 09:44:58;;;;;;;;;32.75;26.75;;;;;4.63;81.26;101848.59;5004355;28;45880;-86
2022/12/07 09:47:24;;;;;;;;;36.75;23.25;;;;;4.58;80.72;101845.94;5035361;28;45306;-84
2022/12/07 09:49:50;;;;;;;;;34.00;22.75;;;;;4.55;81.11;101845.03;5017669;28;45383;-84
2022/12/07 09:52:28;;;;;;;;;35.25;24.00;;;;;4.47;80.83;101840.66;5012499;28;57662;-84
2022/12/07 09:54:53;;;;;;;;;35.25;28.00;;;;;4.46;81.21;101838.06;5004533;28;45826;-84
2022/12/07 09:57:29;;;;;;;;;28.75;22.25;;;;;4.52;81.39;101842.44;5004634;28;45612;-85
2022/12/07 09:59:57;;;;;;;;;32.25;25.00;;;;;4.62;81.71;101832.28;5016671;28;45370;-85
2022/12/07 10:02:25;;;;;;;;;38.50;24.00;;;;;4.81;81.66;101835.06;5018840;28;45432;-85
2022/12/07 10:04:50;;;;;;;;;42.75;28.00;;;;;4.99;81.37;101830.13;5016767;28;45861;-85
2022/12/07 10:07:16;;;;;;;;;35.25;26.00;;;;;5.11;80.74;101832.00;5036859;28;45528;-85
2022/12/07 10:09:42;;;;;;;;;30.25;19.25;;;;;5.21;80.67;101836.41;5035183;28;45549;-85
2022/12/07 10:12:11;;;;;;;;;28.25;22.00;;;;;5.22;80.29;101832.97;5016787;28;47290;-85
2022/12/07 10:15:07;;;;;;;;;30.00;25.75;;;;;5.24;79.94;101830.41;5020045;28;45975;-86
2022/12/07 10:17:44;;;;;;;;;34.50;20.00;;;;;5.26;80.04;101833.88;5004247;28;45372;-85
2022/12/07 10:20:26;;;;;;;;;29.50;21.25;;;;;5.28;79.68;101829.59;5014858;28;45540;-85
2022/12/07 10:23:05;;;;;;;;;31.25;23.25;;;;;5.30;79.43;101821.88;5027894;28;46078;-85
2022/12/07 10:25:38;;;;;;;;;36.75;24.25;;;;;5.33;79.15;101827.03;5008097;28;45871;-85
2022/12/07 10:28:07;;;;;;;;;32.25;19.50;;;;;5.33;79.19;101816.72;5009604;28;45541;-85
2022/12/07 10:30:33;;;;;;;;;34.00;27.00;;;;;5.35;79.49;101818.50;5015623;28;45396;-85
2022/12/07 10:32:58;;;;;;;;;26.75;23.00;;;;;5.46;79.53;101813.44;5012424;28;46286;-85
2022/12/07 10:35:30;;;;;;;;;35.75;20.50;;;;;5.74;80.17;101813.66;5015132;28;45352;-85
2022/12/07 10:37:58;;;;;;;;;26.75;24.25;;;;;6.01;79.32;101811.31;5004612;28;45374;-85
2022/12/07 10:40:34;;;;;;;;;33.25;26.00;;;;;6.25;79.22;101808.91;5000349;28;45641;-85
2022/12/07 10:43:05;;;;;;;;;27.50;25.00;;;;;6.37;78.46;101796.00;5019895;28;46422;-86
2022/12/07 10:45:31;;;;;;;;;32.25;24.00;;;;;6.48;77.36;101802.13;5009365;28;45524;-85
2022/12/07 10:48:10;;;;;;;;;37.75;26.00;;;;;6.54;77.21;101794.41;5031253;28;45503;-85
2022/12/07 10:50:50;;;;;;;;;41.50;24.25;;;;;6.61;77.54;101784.06;5014692;28;45506;-85
2022/12/07 10:53:25;;;;;;;;;36.00;25.50;;;;;6.71;77.28;101781.53;5010392;28;46523;-85
2022/12/07 10:55:50;;;;;;;;;30.50;22.75;;;;;6.79;76.93;101774.66;5027315;28;45859;-85
2022/12/07 10:58:36;;;;;;;;;29.50;25.25;;;;;7.02;77.28;101763.53;5028098;28;46017;-85
2022/12/07 11:01:39;;;;;;;;;38.00;24.75;;;;;7.59;76.61;101765.28;5004201;28;45452;-85
2022/12/07 11:04:41;;;;;;;;;37.00;25.50;;;;;8.59;76.57;101755.59;5035192;28;45765;-85
2022/12/07 11:07:07;;;;;;;;;25.25;19.25;;;;;9.22;74.89;101752.63;5015573;28;45982;-85
2022/12/07 11:09:51;;;;;;;;;30.75;25.25;;;;;9.27;72.91;101752.63;5036203;28;45374;-85
2022/12/07 11:12:38;;;;;;;;;51.75;35.25;;;;;9.26;72.81;101748.28;5030716;28;45691;-86
2022/12/07 11:15:04;;;;;;;;;30.25;23.50;;;;;9.19;71.46;101739.66;5008245;28;46467;-85
2022/12/07 11:17:48;;;;;;;;;30.50;23.75;;;;;9.21;71.61;101735.34;5018198;28;45871;-85
2022/12/07 11:20:39;;;;;;;;;34.50;27.25;;;;;9.56;71.21;101734.16;4993762;28;45411;-84
2022/12/07 11:23:26;;;;;;;;;41.25;32.25;;;;;9.93;70.76;101727.75;5021903;28;45436;-86
2022/12/07 11:25:52;;;;;;;;;21.50;17.00;;;;;10.15;69.54;101721.44;5035317;28;47332;-86
2022/12/07 11:28:35;;;;;;;;;32.67;21.00;;;;;10.44;70.09;101722.88;5035491;28;45310;-87
2022/12/07 11:31:14;;;;;;;;;26.75;24.25;;;;;11.94;69.99;101708.38;5026600;28;45427;-87
2022/12/07 11:33:46;;;;;;;;;27.50;22.50;;;;;12.97;66.74;101714.88;5009328;28;45527;-86
2022/12/07 11:36:37;;;;;;;;;22.00;19.25;;;;;12.90;64.29;101715.06;5029106;28;46332;-86
2022/12/07 11:39:13;;;;;;;;;27.00;23.75;;;;;13.18;64.82;101710.91;4997055;28;45633;-86
2022/12/07 11:41:43;;;;;;;;;34.25;20.50;;;;;14.13;64.32;101704.97;5016542;28;46191;-86
2022/12/07 11:44:17;;;;;;;;;32.25;25.00;;;;;15.18;62.28;101703.59;5030080;28;45462;-87
2022/12/07 11:47:09;;;;;;;;;32.25;27.00;;;;;16.33;60.39;101701.34;5014455;28;48330;-85
2022/12/07 11:49:51;;;;;;;;;30.00;24.25;;;;;17.53;57.42;101696.53;5034824;28;45404;-85
2022/12/07 11:52:40;;;;;;;;;30.00;21.00;;;;;18.34;54.35;101692.94;5006763;28;45481;-84
2022/12/07 11:55:17;;;;;;;;;29.50;24.50;;;;;19.01;52.89;101693.31;5015538;28;45597;-85